sensor_id;sensor_type;location;lat;lon;timestamp;P1;durP1;ratioP1;P2;durP2;ratioP2
63326;SDS011;49452;48.366;10.926;2023-09-30T00:00:25;28.27;;;13.98;;
63326;SDS011;49452;48.366;10.926;2023-09-30T00:00:57;29.02;;;14.23;;
63326;SDS011;49452;48.366;10.926;2023-09-30T00:01:29;32.42;;;15.05;;
63326;SDS011;49452;48.366;10.926;2023-09-30T00:02:00;26.20;;;13.43;;
63326;SDS011;49452;48.366;10.926;2023-09-30T00:02:31;32.65;;;14.95;;
63326;SDS011;49452;48.366;10.926;2023-09-30T00:03:02;31.33;;;14.45;;
63326;SDS011;49452;48.366;10.926;2023-09-30T00:03:34;28.50;;;13.95;;
63326;SDS011;49452;48.366;10.926;2023-09-30T00:04:05;33.08;;;15.25;;
63326;SDS011;49452;48.366;10.926;2023-09-30T00:04:38;30.70;;;14.93;;
63326;SDS011;49452;48.366;10.926;2023-09-30T00:05:10;34.33;;;15.52;;
63326;SDS011;49452;48.366;10.926;2023-09-30T00:05:41;29.30;;;14.38;;
63326;SDS011;49452;48.366;10.926;2023-09-30T00:06:12;31.98;;;14.07;;
63326;SDS011;49452;48.366;10.926;2023-09-30T00:06:44;27.13;;;13.82;;
63326;SDS011;49452;48.366;10.926;2023-09-30T00:07:15;29.73;;;14.27;;
63326;SDS011;49452;48.366;10.926;2023-09-30T00:07:46;29.88;;;14.15;;
63326;SDS011;49452;48.366;10.926;2023-09-30T00:08:17;30.77;;;14.82;;
63326;SDS011;49452;48.366;10.926;2023-09-30T00:08:48;26.63;;;12.77;;
63326;SDS011;49452;48.366;10.926;2023-09-30T00:09:20;27.77;;;14.52;;
63326;SDS011;49452;48.366;10.926;2023-09-30T00:09:51;35.72;;;15.25;;
63326;SDS011;49452;48.366;10.926;2023-09-30T00:10:23;30.80;;;14.63;;
63326;SDS011;49452;48.366;10.926;2023-09-30T00:10:54;28.20;;;12.68;;
63326;SDS011;49452;48.366;10.926;2023-09-30T00:11:25;33.00;;;15.30;;
63326;SDS011;49452;48.366;10.926;2023-09-30T00:11:57;31.00;;;15.70;;
63326;SDS011;49452;48.366;10.926;2023-09-30T00:12:28;31.35;;;15.32;;
63326;SDS011;49452;48.366;10.926;2023-09-30T00:13:00;27.50;;;13.32;;
63326;SDS011;49452;48.366;10.926;2023-09-30T00:13:31;29.70;;;14.52;;
63326;SDS011;49452;48.366;10.926;2023-09-30T00:14:03;35.67;;;15.25;;
63326;SDS011;49452;48.366;10.926;2023-09-30T00:14:35;33.40;;;14.93;;
63326;SDS011;49452;48.366;10.926;2023-09-30T00:15:08;34.10;;;15.32;;
63326;SDS011;49452;48.366;10.926;2023-09-30T00:15:41;31.13;;;14.73;;
63326;SDS011;49452;48.366;10.926;2023-09-30T00:16:12;30.73;;;14.38;;
63326;SDS011;49452;48.366;10.926;2023-09-30T00:16:44;33.30;;;14.50;;
63326;SDS011;49452;48.366;10.926;2023-09-30T00:17:15;31.13;;;14.82;;
63326;SDS011;49452;48.366;10.926;2023-09-30T00:17:47;33.28;;;15.00;;
63326;SDS011;49452;48.366;10.926;2023-09-30T00:18:18;32.08;;;15.90;;
63326;SDS011;49452;48.366;10.926;2023-09-30T00:18:51;34.42;;;14.80;;
63326;SDS011;49452;48.366;10.926;2023-09-30T00:19:22;32.13;;;15.27;;
63326;SDS011;49452;48.366;10.926;2023-09-30T00:19:54;30.88;;;14.40;;
63326;SDS011;49452;48.366;10.926;2023-09-30T00:20:25;31.98;;;15.38;;
63326;SDS011;49452;48.366;10.926;2023-09-30T00:20:56;31.33;;;15.32;;
63326;SDS011;49452;48.366;10.926;2023-09-30T00:21:28;32.10;;;14.88;;
63326;SDS011;49452;48.366;10.926;2023-09-30T00:22:01;31.05;;;14.40;;
63326;SDS011;49452;48.366;10.926;2023-09-30T00:22:32;37.17;;;16.25;;
63326;SDS011;49452;48.366;10.926;2023-09-30T00:23:04;39.28;;;16.33;;
63326;SDS011;49452;48.366;10.926;2023-09-30T00:23:36;33.25;;;16.00;;
63326;SDS011;49452;48.366;10.926;2023-09-30T00:24:08;31.60;;;15.30;;
63326;SDS011;49452;48.366;10.926;2023-09-30T00:24:40;32.78;;;15.25;;
63326;SDS011;49452;48.366;10.926;2023-09-30T00:25:11;29.80;;;15.77;;
63326;SDS011;49452;48.366;10.926;2023-09-30T00:25:42;37.83;;;16.13;;
63326;SDS011;49452;48.366;10.926;2023-09-30T00:26:15;38.67;;;16.85;;
63326;SDS011;49452;48.366;10.926;2023-09-30T00:26:49;33.33;;;15.48;;
63326;SDS011;49452;48.366;10.926;2023-09-30T00:27:22;36.80;;;16.88;;
63326;SDS011;49452;48.366;10.926;2023-09-30T00:27:53;34.55;;;16.10;;
63326;SDS011;49452;48.366;10.926;2023-09-30T00:28:25;35.10;;;16.27;;
63326;SDS011;49452;48.366;10.926;2023-09-30T00:28:57;36.83;;;16.10;;
63326;SDS011;49452;48.366;10.926;2023-09-30T00:29:28;38.92;;;16.67;;
63326;SDS011;49452;48.366;10.926;2023-09-30T00:29:59;37.20;;;17.20;;
63326;SDS011;49452;48.366;10.926;2023-09-30T00:30:30;34.03;;;16.02;;
63326;SDS011;49452;48.366;10.926;2023-09-30T00:31:06;35.17;;;16.63;;
63326;SDS011;49452;48.366;10.926;2023-09-30T00:31:41;34.78;;;16.40;;
63326;SDS011;49452;48.366;10.926;2023-09-30T00:32:12;35.88;;;17.48;;
63326;SDS011;49452;48.366;10.926;2023-09-30T00:32:43;33.20;;;17.05;;
63326;SDS011;49452;48.366;10.926;2023-09-30T00:33:15;35.05;;;16.20;;
63326;SDS011;49452;48.366;10.926;2023-09-30T00:33:47;35.97;;;17.30;;
63326;SDS011;49452;48.366;10.926;2023-09-30T00:34:19;32.75;;;16.65;;
63326;SDS011;49452;48.366;10.926;2023-09-30T00:34:51;38.28;;;17.00;;
63326;SDS011;49452;48.366;10.926;2023-09-30T00:35:23;34.67;;;16.45;;
63326;SDS011;49452;48.366;10.926;2023-09-30T00:35:55;34.95;;;16.88;;
63326;SDS011;49452;48.366;10.926;2023-09-30T00:36:27;35.90;;;16.15;;
63326;SDS011;49452;48.366;10.926;2023-09-30T00:36:58;33.80;;;17.10;;
63326;SDS011;49452;48.366;10.926;2023-09-30T00:37:30;39.80;;;16.90;;
63326;SDS011;49452;48.366;10.926;2023-09-30T00:38:01;35.13;;;15.50;;
63326;SDS011;49452;48.366;10.926;2023-09-30T00:38:32;36.83;;;16.10;;
63326;SDS011;49452;48.366;10.926;2023-09-30T00:39:04;35.00;;;15.93;;
63326;SDS011;49452;48.366;10.926;2023-09-30T00:39:35;35.08;;;16.33;;
63326;SDS011;49452;48.366;10.926;2023-09-30T00:40:08;32.38;;;15.43;;
63326;SDS011;49452;48.366;10.926;2023-09-30T00:40:48;30.35;;;15.25;;
63326;SDS011;49452;48.366;10.926;2023-09-30T00:41:19;37.33;;;16.92;;
63326;SDS011;49452;48.366;10.926;2023-09-30T00:41:51;34.30;;;15.93;;
63326;SDS011;49452;48.366;10.926;2023-09-30T00:42:22;31.70;;;16.48;;
63326;SDS011;49452;48.366;10.926;2023-09-30T00:42:53;35.05;;;16.75;;
63326;SDS011;49452;48.366;10.926;2023-09-30T00:43:24;36.10;;;16.10;;
63326;SDS011;49452;48.366;10.926;2023-09-30T00:43:56;33.45;;;14.98;;
63326;SDS011;49452;48.366;10.926;2023-09-30T00:44:27;34.33;;;16.08;;
63326;SDS011;49452;48.366;10.926;2023-09-30T00:45:00;32.25;;;16.58;;
63326;SDS011;49452;48.366;10.926;2023-09-30T00:45:31;33.35;;;16.05;;
63326;SDS011;49452;48.366;10.926;2023-09-30T00:47:07;31.55;;;15.57;;
63326;SDS011;49452;48.366;10.926;2023-09-30T00:47:39;35.28;;;16.73;;
63326;SDS011;49452;48.366;10.926;2023-09-30T00:48:11;37.47;;;16.40;;
63326;SDS011;49452;48.366;10.926;2023-09-30T00:48:42;32.50;;;14.77;;
63326;SDS011;49452;48.366;10.926;2023-09-30T00:49:14;29.05;;;14.07;;
63326;SDS011;49452;48.366;10.926;2023-09-30T00:49:45;30.85;;;14.98;;
63326;SDS011;49452;48.366;10.926;2023-09-30T00:50:17;33.72;;;14.45;;
63326;SDS011;49452;48.366;10.926;2023-09-30T00:50:50;32.83;;;15.38;;
63326;SDS011;49452;48.366;10.926;2023-09-30T00:51:22;33.30;;;15.70;;
63326;SDS011;49452;48.366;10.926;2023-09-30T00:51:54;34.80;;;16.05;;
63326;SDS011;49452;48.366;10.926;2023-09-30T00:52:26;36.20;;;17.30;;
63326;SDS011;49452;48.366;10.926;2023-09-30T00:52:58;34.05;;;15.88;;
63326;SDS011;49452;48.366;10.926;2023-09-30T00:53:29;35.28;;;16.33;;
63326;SDS011;49452;48.366;10.926;2023-09-30T00:54:00;31.52;;;15.55;;
63326;SDS011;49452;48.366;10.926;2023-09-30T00:54:33;34.75;;;15.52;;
63326;SDS011;49452;48.366;10.926;2023-09-30T00:55:04;33.00;;;16.02;;
63326;SDS011;49452;48.366;10.926;2023-09-30T00:55:36;32.08;;;16.75;;
63326;SDS011;49452;48.366;10.926;2023-09-30T00:56:08;34.38;;;16.27;;
63326;SDS011;49452;48.366;10.926;2023-09-30T00:56:43;32.05;;;15.55;;
63326;SDS011;49452;48.366;10.926;2023-09-30T00:57:19;33.85;;;16.67;;
63326;SDS011;49452;48.366;10.926;2023-09-30T00:57:52;37.55;;;17.35;;
63326;SDS011;49452;48.366;10.926;2023-09-30T00:58:25;36.00;;;16.67;;
63326;SDS011;49452;48.366;10.926;2023-09-30T00:58:59;32.67;;;16.13;;
63326;SDS011;49452;48.366;10.926;2023-09-30T00:59:31;33.33;;;17.02;;
63326;SDS011;49452;48.366;10.926;2023-09-30T01:00:03;36.17;;;16.63;;
63326;SDS011;49452;48.366;10.926;2023-09-30T01:00:35;31.73;;;15.20;;
63326;SDS011;49452;48.366;10.926;2023-09-30T01:01:06;34.70;;;16.63;;
63326;SDS011;49452;48.366;10.926;2023-09-30T01:01:38;35.05;;;16.60;;
63326;SDS011;49452;48.366;10.926;2023-09-30T01:02:10;30.80;;;15.15;;
63326;SDS011;49452;48.366;10.926;2023-09-30T01:02:42;32.63;;;17.13;;
63326;SDS011;49452;48.366;10.926;2023-09-30T01:03:15;36.33;;;16.63;;
63326;SDS011;49452;48.366;10.926;2023-09-30T01:03:46;34.03;;;16.90;;
63326;SDS011;49452;48.366;10.926;2023-09-30T01:04:18;34.78;;;16.02;;
63326;SDS011;49452;48.366;10.926;2023-09-30T01:04:51;32.53;;;16.38;;
63326;SDS011;49452;48.366;10.926;2023-09-30T01:05:22;33.88;;;16.42;;
63326;SDS011;49452;48.366;10.926;2023-09-30T01:05:54;38.97;;;17.02;;
63326;SDS011;49452;48.366;10.926;2023-09-30T01:06:25;33.33;;;16.27;;
63326;SDS011;49452;48.366;10.926;2023-09-30T01:06:58;36.50;;;17.45;;
63326;SDS011;49452;48.366;10.926;2023-09-30T01:07:31;35.40;;;17.30;;
63326;SDS011;49452;48.366;10.926;2023-09-30T01:08:03;32.95;;;15.15;;
63326;SDS011;49452;48.366;10.926;2023-09-30T01:08:34;33.58;;;16.20;;
63326;SDS011;49452;48.366;10.926;2023-09-30T01:09:05;35.15;;;17.00;;
63326;SDS011;49452;48.366;10.926;2023-09-30T01:09:37;32.13;;;16.67;;
63326;SDS011;49452;48.366;10.926;2023-09-30T01:10:09;36.55;;;16.33;;
63326;SDS011;49452;48.366;10.926;2023-09-30T01:10:41;36.42;;;16.05;;
63326;SDS011;49452;48.366;10.926;2023-09-30T01:11:12;37.70;;;17.02;;
63326;SDS011;49452;48.366;10.926;2023-09-30T01:11:44;35.13;;;17.33;;
63326;SDS011;49452;48.366;10.926;2023-09-30T01:12:17;34.80;;;17.45;;
63326;SDS011;49452;48.366;10.926;2023-09-30T01:12:48;32.90;;;16.65;;
63326;SDS011;49452;48.366;10.926;2023-09-30T01:13:19;41.45;;;17.65;;
63326;SDS011;49452;48.366;10.926;2023-09-30T01:13:50;36.78;;;18.02;;
63326;SDS011;49452;48.366;10.926;2023-09-30T01:15:16;34.92;;;16.33;;
63326;SDS011;49452;48.366;10.926;2023-09-30T01:15:48;44.50;;;19.67;;
63326;SDS011;49452;48.366;10.926;2023-09-30T01:16:19;36.15;;;17.10;;
63326;SDS011;49452;48.366;10.926;2023-09-30T01:16:50;32.55;;;17.40;;
63326;SDS011;49452;48.366;10.926;2023-09-30T01:17:22;32.63;;;15.82;;
63326;SDS011;49452;48.366;10.926;2023-09-30T01:17:53;38.20;;;17.55;;
63326;SDS011;49452;48.366;10.926;2023-09-30T01:18:25;36.60;;;18.35;;
63326;SDS011;49452;48.366;10.926;2023-09-30T01:18:57;33.97;;;17.90;;
63326;SDS011;49452;48.366;10.926;2023-09-30T01:19:28;33.92;;;16.60;;
63326;SDS011;49452;48.366;10.926;2023-09-30T01:20:00;41.90;;;18.15;;
63326;SDS011;49452;48.366;10.926;2023-09-30T01:20:32;36.63;;;17.75;;
63326;SDS011;49452;48.366;10.926;2023-09-30T01:21:04;38.05;;;19.23;;
63326;SDS011;49452;48.366;10.926;2023-09-30T01:21:36;36.22;;;17.42;;
63326;SDS011;49452;48.366;10.926;2023-09-30T01:22:08;39.30;;;18.00;;
63326;SDS011;49452;48.366;10.926;2023-09-30T01:22:42;29.80;;;14.82;;
63326;SDS011;49452;48.366;10.926;2023-09-30T01:23:15;37.90;;;17.73;;
63326;SDS011;49452;48.366;10.926;2023-09-30T01:23:48;34.47;;;16.90;;
63326;SDS011;49452;48.366;10.926;2023-09-30T01:24:19;37.97;;;18.15;;
63326;SDS011;49452;48.366;10.926;2023-09-30T01:24:50;33.92;;;16.95;;
63326;SDS011;49452;48.366;10.926;2023-09-30T01:25:22;37.22;;;15.70;;
63326;SDS011;49452;48.366;10.926;2023-09-30T01:25:53;38.65;;;17.58;;
63326;SDS011;49452;48.366;10.926;2023-09-30T01:26:26;37.97;;;16.75;;
63326;SDS011;49452;48.366;10.926;2023-09-30T01:26:57;33.25;;;15.93;;
63326;SDS011;49452;48.366;10.926;2023-09-30T01:27:28;34.45;;;16.35;;
63326;SDS011;49452;48.366;10.926;2023-09-30T01:28:00;31.10;;;16.33;;
63326;SDS011;49452;48.366;10.926;2023-09-30T01:28:37;33.35;;;16.27;;
63326;SDS011;49452;48.366;10.926;2023-09-30T01:29:09;35.45;;;15.60;;
63326;SDS011;49452;48.366;10.926;2023-09-30T01:29:43;31.77;;;15.63;;
63326;SDS011;49452;48.366;10.926;2023-09-30T01:30:14;32.53;;;15.00;;
63326;SDS011;49452;48.366;10.926;2023-09-30T01:30:46;31.83;;;15.45;;
63326;SDS011;49452;48.366;10.926;2023-09-30T01:31:17;32.47;;;15.18;;
63326;SDS011;49452;48.366;10.926;2023-09-30T01:31:49;31.58;;;15.50;;
63326;SDS011;49452;48.366;10.926;2023-09-30T01:32:20;36.33;;;16.85;;
63326;SDS011;49452;48.366;10.926;2023-09-30T01:32:53;38.08;;;17.35;;
63326;SDS011;49452;48.366;10.926;2023-09-30T01:33:24;32.38;;;15.75;;
63326;SDS011;49452;48.366;10.926;2023-09-30T01:33:58;32.70;;;15.55;;
63326;SDS011;49452;48.366;10.926;2023-09-30T01:34:30;37.15;;;16.27;;
63326;SDS011;49452;48.366;10.926;2023-09-30T01:35:01;38.35;;;15.98;;
63326;SDS011;49452;48.366;10.926;2023-09-30T01:35:33;31.25;;;16.35;;
63326;SDS011;49452;48.366;10.926;2023-09-30T01:36:04;33.90;;;16.65;;
63326;SDS011;49452;48.366;10.926;2023-09-30T01:36:35;29.98;;;14.57;;
63326;SDS011;49452;48.366;10.926;2023-09-30T01:37:07;33.97;;;16.45;;
63326;SDS011;49452;48.366;10.926;2023-09-30T01:37:38;37.25;;;18.27;;
63326;SDS011;49452;48.366;10.926;2023-09-30T01:38:10;30.75;;;15.90;;
63326;SDS011;49452;48.366;10.926;2023-09-30T01:38:41;31.13;;;16.88;;
63326;SDS011;49452;48.366;10.926;2023-09-30T01:39:13;33.47;;;16.58;;
63326;SDS011;49452;48.366;10.926;2023-09-30T01:39:45;36.88;;;16.10;;
63326;SDS011;49452;48.366;10.926;2023-09-30T01:40:18;30.17;;;15.05;;
63326;SDS011;49452;48.366;10.926;2023-09-30T01:40:49;33.70;;;15.48;;
63326;SDS011;49452;48.366;10.926;2023-09-30T01:41:21;29.88;;;14.65;;
63326;SDS011;49452;48.366;10.926;2023-09-30T01:41:52;35.65;;;17.27;;
63326;SDS011;49452;48.366;10.926;2023-09-30T01:42:25;30.13;;;14.38;;
63326;SDS011;49452;48.366;10.926;2023-09-30T01:42:57;31.70;;;16.00;;
63326;SDS011;49452;48.366;10.926;2023-09-30T01:43:28;43.08;;;17.10;;
63326;SDS011;49452;48.366;10.926;2023-09-30T01:43:59;37.00;;;17.75;;
63326;SDS011;49452;48.366;10.926;2023-09-30T01:44:31;33.00;;;15.45;;
63326;SDS011;49452;48.366;10.926;2023-09-30T01:45:03;31.10;;;16.15;;
63326;SDS011;49452;48.366;10.926;2023-09-30T01:45:36;34.85;;;17.00;;
63326;SDS011;49452;48.366;10.926;2023-09-30T01:46:07;33.10;;;16.80;;
63326;SDS011;49452;48.366;10.926;2023-09-30T01:46:38;34.67;;;16.15;;
63326;SDS011;49452;48.366;10.926;2023-09-30T01:47:10;39.33;;;17.60;;
63326;SDS011;49452;48.366;10.926;2023-09-30T01:47:42;32.60;;;15.70;;
63326;SDS011;49452;48.366;10.926;2023-09-30T01:48:14;39.38;;;17.77;;
63326;SDS011;49452;48.366;10.926;2023-09-30T01:48:45;38.95;;;17.15;;
63326;SDS011;49452;48.366;10.926;2023-09-30T01:49:16;32.55;;;16.40;;
63326;SDS011;49452;48.366;10.926;2023-09-30T01:49:49;37.97;;;18.33;;
63326;SDS011;49452;48.366;10.926;2023-09-30T01:50:20;36.20;;;17.23;;
63326;SDS011;49452;48.366;10.926;2023-09-30T01:50:51;48.80;;;19.08;;
63326;SDS011;49452;48.366;10.926;2023-09-30T01:51:22;38.05;;;16.23;;
63326;SDS011;49452;48.366;10.926;2023-09-30T01:51:55;36.85;;;17.65;;
63326;SDS011;49452;48.366;10.926;2023-09-30T01:52:26;35.30;;;17.38;;
63326;SDS011;49452;48.366;10.926;2023-09-30T01:52:58;35.72;;;16.70;;
63326;SDS011;49452;48.366;10.926;2023-09-30T01:53:29;42.22;;;18.20;;
63326;SDS011;49452;48.366;10.926;2023-09-30T01:54:01;36.63;;;17.67;;
63326;SDS011;49452;48.366;10.926;2023-09-30T01:54:33;36.65;;;16.75;;
63326;SDS011;49452;48.366;10.926;2023-09-30T01:55:05;37.25;;;17.23;;
63326;SDS011;49452;48.366;10.926;2023-09-30T01:55:36;39.03;;;17.23;;
63326;SDS011;49452;48.366;10.926;2023-09-30T01:56:08;34.53;;;17.70;;
63326;SDS011;49452;48.366;10.926;2023-09-30T01:56:40;37.47;;;17.90;;
63326;SDS011;49452;48.366;10.926;2023-09-30T01:57:11;36.53;;;17.38;;
63326;SDS011;49452;48.366;10.926;2023-09-30T01:57:42;36.25;;;17.48;;
63326;SDS011;49452;48.366;10.926;2023-09-30T01:58:13;39.70;;;19.05;;
63326;SDS011;49452;48.366;10.926;2023-09-30T01:58:46;43.53;;;18.55;;
63326;SDS011;49452;48.366;10.926;2023-09-30T01:59:17;40.05;;;18.13;;
63326;SDS011;49452;48.366;10.926;2023-09-30T01:59:49;44.05;;;19.10;;
63326;SDS011;49452;48.366;10.926;2023-09-30T02:00:20;39.38;;;18.08;;
63326;SDS011;49452;48.366;10.926;2023-09-30T02:00:52;35.67;;;16.50;;
63326;SDS011;49452;48.366;10.926;2023-09-30T02:01:24;34.47;;;15.82;;
63326;SDS011;49452;48.366;10.926;2023-09-30T02:01:57;36.10;;;17.25;;
63326;SDS011;49452;48.366;10.926;2023-09-30T02:02:28;36.70;;;17.85;;
63326;SDS011;49452;48.366;10.926;2023-09-30T02:02:59;44.22;;;19.25;;
63326;SDS011;49452;48.366;10.926;2023-09-30T02:03:31;34.88;;;17.13;;
63326;SDS011;49452;48.366;10.926;2023-09-30T02:04:03;36.08;;;17.00;;
63326;SDS011;49452;48.366;10.926;2023-09-30T02:04:37;33.60;;;16.75;;
63326;SDS011;49452;48.366;10.926;2023-09-30T02:05:08;37.35;;;17.83;;
63326;SDS011;49452;48.366;10.926;2023-09-30T02:05:40;39.47;;;17.58;;
63326;SDS011;49452;48.366;10.926;2023-09-30T02:06:11;43.97;;;19.70;;
63326;SDS011;49452;48.366;10.926;2023-09-30T02:06:42;37.22;;;17.00;;
63326;SDS011;49452;48.366;10.926;2023-09-30T02:07:14;40.38;;;16.88;;
63326;SDS011;49452;48.366;10.926;2023-09-30T02:07:45;31.38;;;16.13;;
63326;SDS011;49452;48.366;10.926;2023-09-30T02:08:16;31.92;;;15.82;;
63326;SDS011;49452;48.366;10.926;2023-09-30T02:08:49;37.70;;;16.33;;
63326;SDS011;49452;48.366;10.926;2023-09-30T02:09:20;36.30;;;17.15;;
63326;SDS011;49452;48.366;10.926;2023-09-30T02:09:51;35.97;;;15.80;;
63326;SDS011;49452;48.366;10.926;2023-09-30T02:10:23;30.40;;;15.10;;
63326;SDS011;49452;48.366;10.926;2023-09-30T02:10:54;28.80;;;14.32;;
63326;SDS011;49452;48.366;10.926;2023-09-30T02:11:25;36.97;;;16.30;;
63326;SDS011;49452;48.366;10.926;2023-09-30T02:11:56;35.53;;;15.85;;
63326;SDS011;49452;48.366;10.926;2023-09-30T02:12:28;34.20;;;16.58;;
63326;SDS011;49452;48.366;10.926;2023-09-30T02:12:59;31.80;;;15.02;;
63326;SDS011;49452;48.366;10.926;2023-09-30T02:13:33;34.45;;;14.98;;
63326;SDS011;49452;48.366;10.926;2023-09-30T02:14:09;32.25;;;14.60;;
63326;SDS011;49452;48.366;10.926;2023-09-30T02:14:42;32.95;;;14.15;;
63326;SDS011;49452;48.366;10.926;2023-09-30T02:15:15;32.65;;;15.25;;
63326;SDS011;49452;48.366;10.926;2023-09-30T02:15:47;31.45;;;16.17;;
63326;SDS011;49452;48.366;10.926;2023-09-30T02:16:18;31.88;;;15.00;;
63326;SDS011;49452;48.366;10.926;2023-09-30T02:16:49;32.65;;;15.75;;
63326;SDS011;49452;48.366;10.926;2023-09-30T02:17:21;29.48;;;14.57;;
63326;SDS011;49452;48.366;10.926;2023-09-30T02:17:52;33.35;;;16.15;;
63326;SDS011;49452;48.366;10.926;2023-09-30T02:18:25;32.03;;;14.98;;
63326;SDS011;49452;48.366;10.926;2023-09-30T02:18:56;33.20;;;14.85;;
63326;SDS011;49452;48.366;10.926;2023-09-30T02:19:28;34.53;;;15.70;;
63326;SDS011;49452;48.366;10.926;2023-09-30T02:20:02;31.27;;;15.13;;
63326;SDS011;49452;48.366;10.926;2023-09-30T02:20:38;33.58;;;16.73;;
63326;SDS011;49452;48.366;10.926;2023-09-30T02:21:10;30.73;;;15.05;;
63326;SDS011;49452;48.366;10.926;2023-09-30T02:21:41;29.63;;;14.65;;
63326;SDS011;49452;48.366;10.926;2023-09-30T02:22:13;31.20;;;15.07;;
63326;SDS011;49452;48.366;10.926;2023-09-30T02:22:45;31.67;;;14.70;;
63326;SDS011;49452;48.366;10.926;2023-09-30T02:23:17;32.53;;;15.75;;
63326;SDS011;49452;48.366;10.926;2023-09-30T02:23:50;34.13;;;15.57;;
63326;SDS011;49452;48.366;10.926;2023-09-30T02:24:26;39.10;;;15.98;;
63326;SDS011;49452;48.366;10.926;2023-09-30T02:24:57;32.75;;;14.57;;
63326;SDS011;49452;48.366;10.926;2023-09-30T02:25:28;32.60;;;15.15;;
63326;SDS011;49452;48.366;10.926;2023-09-30T02:26:01;35.40;;;15.95;;
63326;SDS011;49452;48.366;10.926;2023-09-30T02:26:34;39.15;;;16.02;;
63326;SDS011;49452;48.366;10.926;2023-09-30T02:27:05;25.50;;;14.02;;
63326;SDS011;49452;48.366;10.926;2023-09-30T02:27:37;33.00;;;15.32;;
63326;SDS011;49452;48.366;10.926;2023-09-30T02:28:09;34.65;;;16.40;;
63326;SDS011;49452;48.366;10.926;2023-09-30T02:28:41;32.03;;;15.13;;
63326;SDS011;49452;48.366;10.926;2023-09-30T02:29:12;37.00;;;16.90;;
63326;SDS011;49452;48.366;10.926;2023-09-30T02:29:44;32.10;;;14.88;;
63326;SDS011;49452;48.366;10.926;2023-09-30T02:30:16;30.17;;;14.43;;
63326;SDS011;49452;48.366;10.926;2023-09-30T02:30:49;29.45;;;14.43;;
63326;SDS011;49452;48.366;10.926;2023-09-30T02:31:20;30.25;;;14.95;;
63326;SDS011;49452;48.366;10.926;2023-09-30T02:31:51;32.80;;;14.88;;
63326;SDS011;49452;48.366;10.926;2023-09-30T02:32:25;30.88;;;15.43;;
63326;SDS011;49452;48.366;10.926;2023-09-30T02:32:58;32.65;;;15.48;;
63326;SDS011;49452;48.366;10.926;2023-09-30T02:33:31;33.88;;;16.13;;
63326;SDS011;49452;48.366;10.926;2023-09-30T02:34:02;32.40;;;14.13;;
63326;SDS011;49452;48.366;10.926;2023-09-30T02:34:34;32.60;;;15.43;;
63326;SDS011;49452;48.366;10.926;2023-09-30T02:35:06;30.25;;;14.73;;
63326;SDS011;49452;48.366;10.926;2023-09-30T02:35:43;31.75;;;15.55;;
63326;SDS011;49452;48.366;10.926;2023-09-30T02:36:16;27.67;;;14.10;;
63326;SDS011;49452;48.366;10.926;2023-09-30T02:36:47;42.72;;;15.70;;
63326;SDS011;49452;48.366;10.926;2023-09-30T02:37:19;30.60;;;15.40;;
63326;SDS011;49452;48.366;10.926;2023-09-30T02:37:51;34.85;;;15.45;;
63326;SDS011;49452;48.366;10.926;2023-09-30T02:38:23;31.67;;;14.95;;
63326;SDS011;49452;48.366;10.926;2023-09-30T02:38:56;34.42;;;16.42;;
63326;SDS011;49452;48.366;10.926;2023-09-30T02:39:27;31.17;;;14.40;;
63326;SDS011;49452;48.366;10.926;2023-09-30T02:39:59;30.70;;;14.45;;
63326;SDS011;49452;48.366;10.926;2023-09-30T02:40:31;33.85;;;15.55;;
63326;SDS011;49452;48.366;10.926;2023-09-30T02:41:02;29.50;;;15.13;;
63326;SDS011;49452;48.366;10.926;2023-09-30T02:41:34;32.55;;;15.40;;
63326;SDS011;49452;48.366;10.926;2023-09-30T02:42:06;32.92;;;15.65;;
63326;SDS011;49452;48.366;10.926;2023-09-30T02:42:38;33.30;;;14.82;;
63326;SDS011;49452;48.366;10.926;2023-09-30T02:43:10;29.63;;;14.45;;
63326;SDS011;49452;48.366;10.926;2023-09-30T02:43:41;34.03;;;14.00;;
63326;SDS011;49452;48.366;10.926;2023-09-30T02:44:13;32.55;;;15.25;;
63326;SDS011;49452;48.366;10.926;2023-09-30T02:44:44;31.13;;;15.55;;
63326;SDS011;49452;48.366;10.926;2023-09-30T02:45:15;33.72;;;15.50;;
63326;SDS011;49452;48.366;10.926;2023-09-30T02:45:49;33.95;;;15.82;;
63326;SDS011;49452;48.366;10.926;2023-09-30T02:46:21;32.38;;;14.57;;
63326;SDS011;49452;48.366;10.926;2023-09-30T02:46:52;33.50;;;14.13;;
63326;SDS011;49452;48.366;10.926;2023-09-30T02:47:24;33.08;;;13.73;;
63326;SDS011;49452;48.366;10.926;2023-09-30T02:47:55;28.45;;;15.18;;
63326;SDS011;49452;48.366;10.926;2023-09-30T02:48:26;29.23;;;14.50;;
63326;SDS011;49452;48.366;10.926;2023-09-30T02:49:00;30.23;;;15.02;;
63326;SDS011;49452;48.366;10.926;2023-09-30T02:49:33;28.75;;;13.82;;
63326;SDS011;49452;48.366;10.926;2023-09-30T02:50:05;32.03;;;14.48;;
63326;SDS011;49452;48.366;10.926;2023-09-30T02:50:41;27.60;;;13.95;;
63326;SDS011;49452;48.366;10.926;2023-09-30T02:51:15;27.80;;;13.30;;
63326;SDS011;49452;48.366;10.926;2023-09-30T02:51:47;34.20;;;14.80;;
63326;SDS011;49452;48.366;10.926;2023-09-30T02:52:19;30.65;;;15.35;;
63326;SDS011;49452;48.366;10.926;2023-09-30T02:52:50;30.10;;;14.45;;
63326;SDS011;49452;48.366;10.926;2023-09-30T02:53:23;31.95;;;14.38;;
63326;SDS011;49452;48.366;10.926;2023-09-30T02:53:54;31.55;;;13.13;;
63326;SDS011;49452;48.366;10.926;2023-09-30T02:54:26;29.13;;;14.65;;
63326;SDS011;49452;48.366;10.926;2023-09-30T02:54:58;27.45;;;13.95;;
63326;SDS011;49452;48.366;10.926;2023-09-30T02:55:29;28.70;;;13.98;;
63326;SDS011;49452;48.366;10.926;2023-09-30T02:56:01;35.45;;;14.40;;
63326;SDS011;49452;48.366;10.926;2023-09-30T02:56:33;28.60;;;13.07;;
63326;SDS011;49452;48.366;10.926;2023-09-30T02:57:05;26.52;;;13.98;;
63326;SDS011;49452;48.366;10.926;2023-09-30T02:57:36;30.33;;;14.50;;
63326;SDS011;49452;48.366;10.926;2023-09-30T02:58:08;33.13;;;14.35;;
63326;SDS011;49452;48.366;10.926;2023-09-30T02:58:39;29.85;;;13.48;;
63326;SDS011;49452;48.366;10.926;2023-09-30T02:59:12;29.20;;;13.75;;
63326;SDS011;49452;48.366;10.926;2023-09-30T02:59:45;29.40;;;13.02;;
63326;SDS011;49452;48.366;10.926;2023-09-30T03:00:16;33.25;;;14.82;;
63326;SDS011;49452;48.366;10.926;2023-09-30T03:01:33;28.88;;;12.80;;
63326;SDS011;49452;48.366;10.926;2023-09-30T03:02:05;29.75;;;13.48;;
63326;SDS011;49452;48.366;10.926;2023-09-30T03:02:37;27.92;;;13.65;;
63326;SDS011;49452;48.366;10.926;2023-09-30T03:03:09;31.23;;;14.07;;
63326;SDS011;49452;48.366;10.926;2023-09-30T03:03:42;27.48;;;13.40;;
63326;SDS011;49452;48.366;10.926;2023-09-30T03:04:17;30.58;;;13.50;;
63326;SDS011;49452;48.366;10.926;2023-09-30T03:04:50;29.80;;;13.98;;
63326;SDS011;49452;48.366;10.926;2023-09-30T03:05:22;32.10;;;13.73;;
63326;SDS011;49452;48.366;10.926;2023-09-30T03:05:54;27.60;;;13.25;;
63326;SDS011;49452;48.366;10.926;2023-09-30T03:06:25;33.38;;;13.38;;
63326;SDS011;49452;48.366;10.926;2023-09-30T03:06:56;29.60;;;13.45;;